Indianapolis, IN (46262)

11:29 AM EDT on July 07, 2015 (GMT -0400)
North Fountain Square | | Change Station
CLOSE
Current Station
Personal Weather Station
Location: Indianapolis, IN
Elevation: 738 ft
Nearby Weather Stations

Elev 738 ft 39.76 °N, 86.14 °W | Updated 8 seconds ago

Overcast
Overcast
79.2 °F
Feels Like 83 °F
N
2.9
Wind Variable Wind from SW
Gusts 4.9 mph

Today
High -- | Low -- °F
--% Chance of Precip.
Yesterday
High -- | Low -- °F
Precip. -- in
6:23 AM 9:15 PM
Waning Gibbous, 64% visible
Pressure 29.90 in
Visibility 6.0 miles
Clouds Mostly Cloudy 1200 ft
Mostly Cloudy 1800 ft
Overcast 2400 ft
Heat Index 83 °F
Dew Point 76 °F
Humidity 90%
Rainfall 0.00 in
Snow Depth Not available.
UV 2 out of 12
Pollen .50 out of 12
Air Quality Not available.
Flu Activity Not available.
METAR KIND 071454Z 20012KT 6SM BR BKN012 BKN018 OVC024 25/22 A2992 RMK AO2 RAB1358E21 SLP123 P0003 60003 T02500222 50000

More Conditions Fewer Conditions

Pressure 29.90 in
Visibility 6.0 miles
Clouds Mostly Cloudy 1200 ft
Mostly Cloudy 1800 ft
Overcast 2400 ft
Heat Index 83 °F
Dew Point 76 °F
Humidity 90%
Rainfall 0.00 in
Snow Depth Not available.
UV 2 out of 12
Pollen .50 out of 12
Air Quality Not available.
Flu Activity Not available.
METAR KIND 071454Z 20012KT 6SM BR BKN012 BKN018 OVC024 25/22 A2992 RMK AO2 RAB1358E21 SLP123 P0003 60003 T02500222 50000

More Conditions Fewer Conditions

10-Day Weather Forecast

×

Almanac

Astronomy

Jul. 07, 2015 Rise Set
Actual Time
Civil Twilight
Nautical Twilight
Astronomical Twilight
Moon
Length of Visible Light
Length of Day
Tomorrow will be .
, % of the Moon is Illuminated

Today's Extremes

State Highs State Lows

Community

WunderPhotos

Upload Photos

1,835,816 photos uploaded!

WunderBlogs® & News

Nearby

Air Quality

  Air Quality AQ Index Pollutant
Not available.

Snow Depth

Station Depth Elevation

Earthquake Activity

City Distance Mag. Time & Date
Minimum magnitude displayed is 2.5.

Coastal Water Temperatures

Place Temperature

Stations

Nearby Weather Stations

Station Location Temp. Windchill Dew Point Humidity Wind Precip. Elev Updated Type